Frizington, United Kingdom
Current Conditions -  °F | °C
As of 3:50 PM on Wednesday 28 Jan 2015 (Local Time) from EGNC Reporting Station
Rain Showers Rain Showers  
Wind Chill: 25°   Ceiling: Unl
Heat Index: 36°   Visibility: 6mi
Dew Point: 32°   Wind: 20mph
Humidity: 87%   Direction: 250°WSW
Pressure: 29.29"   Gusts: NA
Location:  54.54°N, 3.49°W
Report Text: EGNC 281550Z 25017KT 9999 7000NW VCSH FEW007 SCT016 SCT024 02/M00 Q0992
Loading
Personal Weather Stations






























Interactive Weather Map New forecast layout! Learn more

10-Day Weather Forecast

Advertisements
Track Severe Weather on mobile